Time;durP1;ratioP1;P1;durP2;ratioP2;P2;SDS_P1;SDS_P2;PMS_P1;PMS_P2;Temp;Humidity;BMP_temperature;BMP_pressure;BME280_temperature;BME280_humidity;BME280_pressure;Samples;Min_cycle;Max_cycle;Signal;HPM_P1;HPM_P2
2022/08/19 00:00:14;;;;;;;29.20;18.08;;;20.20;99.90;;;;;;5031527;28;20053;-61
2022/08/19 00:02:41;;;;;;;25.65;17.20;;;20.20;99.90;;;;;;5029733;28;20029;-61
2022/08/19 00:05:08;;;;;;;26.75;18.88;;;20.20;99.90;;;;;;5043190;28;20029;-61
2022/08/19 00:07:34;;;;;;;31.25;18.23;;;20.10;99.90;;;;;;5032632;28;20033;-61
2022/08/19 00:10:00;;;;;;;30.20;17.63;;;20.10;99.90;;;;;;5039008;28;20388;-61
2022/08/19 00:12:25;;;;;;;27.30;17.92;;;20.10;99.90;;;;;;5030851;28;20038;-61
2022/08/19 00:14:53;;;;;;;32.83;18.67;;;20.00;99.90;;;;;;5035247;28;20101;-60
2022/08/19 00:17:20;;;;;;;29.33;18.90;;;20.00;99.90;;;;;;5031029;28;20057;-61
2022/08/19 00:19:46;;;;;;;28.95;18.42;;;20.00;99.90;;;;;;5032280;28;20046;-61
2022/08/19 00:22:11;;;;;;;30.10;19.40;;;20.00;99.90;;;;;;5027110;28;20021;-61
2022/08/19 00:24:38;;;;;;;28.17;18.08;;;20.10;99.90;;;;;;5031008;28;20037;-60
2022/08/19 00:27:04;;;;;;;34.38;19.63;;;20.00;99.90;;;;;;5029824;28;20112;-61
2022/08/19 00:29:30;;;;;;;27.15;18.73;;;20.10;99.90;;;;;;5038582;28;20033;-61
2022/08/19 00:31:58;;;;;;;30.73;19.33;;;20.00;99.90;;;;;;5030969;28;20029;-61
2022/08/19 00:34:26;;;;;;;32.40;19.60;;;20.00;99.90;;;;;;5032316;28;20048;-61
2022/08/19 00:36:51;;;;;;;28.95;19.60;;;19.90;99.90;;;;;;5028401;28;20035;-60
2022/08/19 00:39:18;;;;;;;29.95;18.50;;;20.00;99.90;;;;;;5031435;28;20029;-61
2022/08/19 00:41:47;;;;;;;33.92;18.92;;;19.90;99.90;;;;;;5028575;28;20460;-60
2022/08/19 00:44:22;;;;;;;27.77;19.05;;;20.00;99.90;;;;;;5029595;28;20041;-60
2022/08/19 00:46:50;;;;;;;29.33;19.63;;;20.00;99.90;;;;;;5032778;28;20067;-61
2022/08/19 00:49:50;;;;;;;29.20;19.27;;;19.90;99.90;;;;;;5044776;28;20038;-61
2022/08/19 00:52:39;;;;;;;29.98;19.42;;;19.90;99.90;;;;;;5032151;28;20377;-61
2022/08/19 00:55:10;;;;;;;30.75;19.85;;;19.80;99.90;;;;;;5029411;28;20163;-61
2022/08/19 00:57:39;;;;;;;29.83;18.73;;;19.80;99.90;;;;;;5031153;28;20412;-61
2022/08/19 01:00:13;;;;;;;31.27;20.35;;;19.70;99.90;;;;;;5035157;28;20633;-61
2022/08/19 01:02:40;;;;;;;33.65;20.65;;;19.60;99.90;;;;;;5029389;28;20615;-61
2022/08/19 01:05:09;;;;;;;31.52;20.05;;;19.50;99.90;;;;;;5027375;28;21835;-61
2022/08/19 01:07:37;;;;;;;30.98;19.98;;;19.40;99.90;;;;;;5029957;28;20034;-61
2022/08/19 01:10:06;;;;;;;32.10;20.45;;;19.30;99.90;;;;;;5027600;28;20030;-61
2022/08/19 01:12:32;;;;;;;36.63;22.48;;;19.30;99.90;;;;;;5031739;28;20036;-60
2022/08/19 01:14:59;;;;;;;35.45;23.65;;;19.30;99.90;;;;;;5028715;28;20036;-61
2022/08/19 01:17:25;;;;;;;36.72;22.00;;;19.30;99.90;;;;;;5025433;28;20030;-61
2022/08/19 01:19:51;;;;;;;32.65;21.27;;;19.30;99.90;;;;;;5027445;28;20033;-61
2022/08/19 01:22:30;;;;;;;32.97;21.52;;;19.30;99.90;;;;;;5050072;28;20021;-61
2022/08/19 01:24:56;;;;;;;29.17;19.95;;;19.30;99.90;;;;;;5036826;28;20045;-61
2022/08/19 01:27:22;;;;;;;34.63;22.05;;;19.20;99.90;;;;;;5028465;28;20025;-60
2022/08/19 01:29:47;;;;;;;35.00;21.25;;;19.20;99.90;;;;;;5030010;28;20502;-61
2022/08/19 01:32:16;;;;;;;33.20;21.85;;;19.20;99.90;;;;;;5030203;28;20043;-60
2022/08/19 01:34:46;;;;;;;32.53;21.00;;;19.10;99.90;;;;;;5029331;28;20087;-61
2022/08/19 01:37:14;;;;;;;36.53;22.85;;;19.10;99.90;;;;;;5035723;28;20476;-61
2022/08/19 01:39:41;;;;;;;37.65;22.40;;;19.10;99.90;;;;;;5029323;28;20033;-60
2022/08/19 01:42:10;;;;;;;35.20;21.65;;;19.10;99.90;;;;;;5028500;28;20229;-61
2022/08/19 01:44:37;;;;;;;32.33;20.77;;;19.10;99.90;;;;;;5030090;28;20468;-61
2022/08/19 01:47:03;;;;;;;34.08;21.58;;;19.10;99.90;;;;;;5023812;28;20049;-61
2022/08/19 01:49:29;;;;;;;36.35;22.02;;;19.10;99.90;;;;;;5020895;28;20029;-60
2022/08/19 01:51:55;;;;;;;37.05;21.67;;;19.20;99.90;;;;;;5028327;28;20034;-60
2022/08/19 01:54:24;;;;;;;36.85;22.25;;;19.20;99.90;;;;;;5026731;28;20104;-60
2022/08/19 01:56:51;;;;;;;32.08;20.90;;;19.20;99.90;;;;;;5041807;28;20033;-61
2022/08/19 01:59:21;;;;;;;32.38;21.70;;;19.20;99.90;;;;;;5042248;28;20041;-61
2022/08/19 02:01:47;;;;;;;35.63;22.00;;;19.20;99.90;;;;;;5032079;28;20026;-61
2022/08/19 02:04:13;;;;;;;36.25;21.50;;;19.10;99.90;;;;;;5027320;28;20530;-60
2022/08/19 02:06:39;;;;;;;37.72;22.58;;;19.00;99.90;;;;;;5028777;28;20060;-61
2022/08/19 02:09:06;;;;;;;32.97;21.63;;;19.00;99.90;;;;;;5027937;28;20029;-61
2022/08/19 02:11:35;;;;;;;34.53;22.20;;;18.90;99.90;;;;;;5026281;28;20025;-60
2022/08/19 02:14:03;;;;;;;34.25;21.45;;;19.00;99.90;;;;;;5028834;28;20040;-61
2022/08/19 02:16:30;;;;;;;35.22;22.25;;;18.90;99.90;;;;;;5028256;28;20036;-60
2022/08/19 02:18:56;;;;;;;35.65;22.40;;;18.80;99.90;;;;;;5027152;28;20033;-60
2022/08/19 02:21:23;;;;;;;34.58;22.67;;;18.80;99.90;;;;;;5026879;28;20498;-61
2022/08/19 02:23:50;;;;;;;39.38;23.73;;;18.70;99.90;;;;;;5028984;28;20060;-60
2022/08/19 02:26:16;;;;;;;38.03;23.50;;;18.70;99.90;;;;;;5027472;28;20152;-60
2022/08/19 02:28:42;;;;;;;37.88;23.45;;;18.70;99.90;;;;;;5028288;28;20126;-61
2022/08/19 02:31:17;;;;;;;44.67;24.33;;;18.70;99.90;;;;;;5027507;28;20040;-60
2022/08/19 02:33:43;;;;;;;42.00;22.88;;;18.70;99.90;;;;;;5028497;28;20033;-60
2022/08/19 02:36:11;;;;;;;35.13;23.63;;;18.70;99.90;;;;;;5032465;28;20152;-60
2022/08/19 02:38:38;;;;;;;38.28;24.27;;;18.70;99.90;;;;;;5030338;28;20052;-61
2022/08/19 02:41:09;;;;;;;34.50;22.77;;;18.70;99.90;;;;;;5033798;28;20037;-61
2022/08/19 02:43:39;;;;;;;36.40;22.27;;;18.70;99.90;;;;;;5050132;28;20041;-60
2022/08/19 02:46:21;;;;;;;34.53;22.63;;;18.70;99.90;;;;;;5043601;28;20503;-61
2022/08/19 02:48:51;;;;;;;35.55;22.00;;;18.80;99.90;;;;;;5035688;28;20036;-61
2022/08/19 02:51:27;;;;;;;38.13;22.85;;;18.80;99.90;;;;;;5048575;28;20040;-61
2022/08/19 02:53:53;;;;;;;34.17;21.77;;;18.90;99.90;;;;;;5034697;28;20383;-61
2022/08/19 02:56:20;;;;;;;34.15;22.55;;;18.90;99.90;;;;;;5041883;28;20051;-60
2022/08/19 02:58:47;;;;;;;33.92;21.75;;;19.00;99.90;;;;;;5030964;28;20048;-61
2022/08/19 03:01:24;;;;;;;33.35;21.30;;;18.90;99.90;;;;;;5027843;28;20082;-60
2022/08/19 03:03:50;;;;;;;32.33;21.98;;;19.00;99.90;;;;;;5014334;28;20038;-61
2022/08/19 03:06:17;;;;;;;34.25;22.52;;;19.00;99.90;;;;;;5023338;28;20087;-60
2022/08/19 03:08:45;;;;;;;32.95;21.67;;;19.00;99.90;;;;;;5027791;28;20044;-61
2022/08/19 03:11:18;;;;;;;36.38;22.88;;;19.00;99.90;;;;;;5026308;28;20359;-61
2022/08/19 03:13:45;;;;;;;35.40;22.77;;;18.90;99.90;;;;;;5029331;28;20025;-61
2022/08/19 03:16:12;;;;;;;35.30;21.67;;;18.90;99.90;;;;;;5027719;28;20030;-61
2022/08/19 03:18:38;;;;;;;35.83;22.30;;;18.90;99.90;;;;;;5029712;28;20029;-61
2022/08/19 03:21:05;;;;;;;35.30;23.20;;;18.90;99.90;;;;;;5024566;28;20025;-61
2022/08/19 03:23:30;;;;;;;35.10;22.02;;;18.90;99.90;;;;;;5042141;28;20040;-60
2022/08/19 03:25:56;;;;;;;36.70;22.58;;;18.80;99.90;;;;;;5027192;28;20030;-61
2022/08/19 03:28:22;;;;;;;33.72;21.75;;;18.80;99.90;;;;;;5025311;28;20037;-60
2022/08/19 03:31:02;;;;;;;33.92;21.17;;;18.80;99.90;;;;;;5048275;28;20033;-60
2022/08/19 03:33:29;;;;;;;33.83;22.08;;;18.80;99.90;;;;;;5038927;28;20071;-61
2022/08/19 03:36:11;;;;;;;35.70;22.58;;;18.80;99.90;;;;;;5032548;28;20044;-60
2022/08/19 03:38:39;;;;;;;38.22;24.58;;;18.70;99.90;;;;;;5028133;28;20021;-61
2022/08/19 03:41:08;;;;;;;37.72;24.10;;;18.60;99.90;;;;;;5028546;28;20056;-60
2022/08/19 03:43:38;;;;;;;37.80;24.63;;;18.60;99.90;;;;;;5040945;28;20036;-60
2022/08/19 03:46:12;;;;;;;35.45;23.80;;;18.50;99.90;;;;;;5040105;28;20063;-61
2022/08/19 03:48:40;;;;;;;40.20;24.83;;;18.50;99.90;;;;;;5040720;28;20033;-60
2022/08/19 03:51:07;;;;;;;37.17;22.85;;;18.40;99.90;;;;;;5048098;28;20368;-61
2022/08/19 03:53:34;;;;;;;37.25;21.80;;;18.40;99.90;;;;;;5019053;28;20021;-61
2022/08/19 03:56:01;;;;;;;39.45;24.00;;;18.50;99.90;;;;;;5027100;28;20025;-61
2022/08/19 03:58:29;;;;;;;36.33;23.15;;;18.50;99.90;;;;;;5026365;28;20037;-60
2022/08/19 04:00:58;;;;;;;45.45;24.73;;;18.50;99.90;;;;;;5024015;28;20068;-61
2022/08/19 04:03:26;;;;;;;43.50;24.38;;;18.50;99.90;;;;;;5018189;28;20036;-60
2022/08/19 04:05:53;;;;;;;41.40;26.05;;;18.50;99.90;;;;;;5029809;28;20127;-61
2022/08/19 04:08:20;;;;;;;39.30;25.40;;;18.50;99.90;;;;;;5026424;28;20898;-61
2022/08/19 04:10:47;;;;;;;41.88;25.10;;;18.50;99.90;;;;;;5029042;28;20079;-61
2022/08/19 04:13:15;;;;;;;42.25;25.92;;;18.40;99.90;;;;;;5026546;28;20057;-61
2022/08/19 04:15:42;;;;;;;42.63;25.77;;;18.40;99.90;;;;;;5028833;28;20491;-61
2022/08/19 04:18:10;;;;;;;49.03;26.42;;;18.30;99.90;;;;;;5035299;28;20033;-61
2022/08/19 04:20:44;;;;;;;42.70;26.17;;;18.30;99.90;;;;;;5037421;28;20053;-61
2022/08/19 04:23:11;;;;;;;42.20;25.88;;;18.30;99.90;;;;;;5025948;28;20529;-61
2022/08/19 04:25:39;;;;;;;44.13;25.42;;;18.30;99.90;;;;;;5029133;28;20041;-61
2022/08/19 04:28:05;;;;;;;46.70;26.38;;;18.30;99.90;;;;;;5037985;28;20041;-60
2022/08/19 04:30:36;;;;;;;43.08;26.67;;;18.30;99.90;;;;;;5035157;28;20104;-60
2022/08/19 04:33:02;;;;;;;42.20;26.10;;;18.20;99.90;;;;;;5022898;28;20037;-61
2022/08/19 04:35:27;;;;;;;44.88;25.50;;;18.20;99.90;;;;;;5009383;28;20026;-61
2022/08/19 04:37:53;;;;;;;45.05;26.33;;;18.20;99.90;;;;;;5030358;28;20030;-61
2022/08/19 04:43:03;;;;;;;41.17;25.58;;;18.20;99.90;;;;;;5029445;28;20055;-61
2022/08/19 04:45:28;;;;;;;44.10;24.60;;;18.30;99.90;;;;;;5031351;28;20476;-61
2022/08/19 04:47:57;;;;;;;70.40;27.73;;;18.30;99.90;;;;;;5028924;28;20087;-61
2022/08/19 04:50:22;;;;;;;46.42;26.98;;;18.30;99.90;;;;;;5031183;28;20025;-61
2022/08/19 04:52:50;;;;;;;40.30;24.38;;;18.20;99.90;;;;;;5031149;28;20044;-61
2022/08/19 04:55:17;;;;;;;42.78;25.63;;;18.20;99.90;;;;;;5029136;28;20067;-61
2022/08/19 04:57:43;;;;;;;45.72;26.67;;;18.20;99.90;;;;;;5030832;28;20530;-61
2022/08/19 05:00:10;;;;;;;47.33;26.45;;;18.20;99.90;;;;;;5028598;28;20029;-61
2022/08/19 05:02:37;;;;;;;45.80;25.60;;;18.20;99.90;;;;;;5028672;28;20120;-60
2022/08/19 05:05:03;;;;;;;47.00;26.00;;;18.20;99.90;;;;;;5031165;28;20026;-61
2022/08/19 05:07:29;;;;;;;41.22;24.80;;;18.20;99.90;;;;;;5037060;28;20065;-61
2022/08/19 05:09:55;;;;;;;46.75;26.88;;;18.30;99.90;;;;;;5035579;28;20076;-61
2022/08/19 05:12:21;;;;;;;39.72;25.08;;;18.30;99.90;;;;;;5036624;28;20592;-61
2022/08/19 05:14:47;;;;;;;42.47;25.35;;;18.30;99.90;;;;;;5051663;28;20040;-61
2022/08/19 05:17:13;;;;;;;46.75;25.42;;;18.30;99.90;;;;;;5032668;28;20057;-61
2022/08/19 05:22:32;;;;;;;40.47;25.17;;;18.30;99.90;;;;;;5026884;28;20036;-60
2022/08/19 05:24:58;;;;;;;44.30;26.50;;;18.30;99.90;;;;;;5024851;28;20033;-61
2022/08/19 05:27:24;;;;;;;43.95;25.20;;;18.20;99.90;;;;;;5030243;28;20087;-61
2022/08/19 05:29:50;;;;;;;44.22;25.77;;;18.30;99.90;;;;;;5029805;28;20530;-61
2022/08/19 05:32:16;;;;;;;41.95;27.08;;;18.30;99.90;;;;;;5029234;28;20041;-61
2022/08/19 05:34:41;;;;;;;45.47;26.58;;;18.40;99.90;;;;;;5030192;28;20061;-61
2022/08/19 05:37:08;;;;;;;44.45;27.00;;;18.40;99.90;;;;;;5029724;28;20025;-61
2022/08/19 05:39:35;;;;;;;45.30;27.65;;;18.50;99.90;;;;;;5029347;28;20112;-60
2022/08/19 05:42:06;;;;;;;40.72;26.02;;;18.50;99.90;;;;;;5026817;28;20033;-61
2022/08/19 05:44:33;;;;;;;;;;;18.50;99.90;;;;;;5027675;28;20049;-60
2022/08/19 05:47:00;;;;;;;45.80;25.80;;;18.50;99.90;;;;;;5028313;28;19921;-61
2022/08/19 05:49:27;;;;;;;44.63;25.77;;;18.50;99.90;;;;;;5026522;28;20037;-60
2022/08/19 05:51:55;;;;;;;42.60;26.10;;;18.60;99.90;;;;;;5028080;28;20033;-61
2022/08/19 05:54:22;;;;;;;46.85;26.17;;;18.60;99.90;;;;;;5028769;28;20102;-61
2022/08/19 05:56:49;;;;;;;47.72;25.65;;;18.60;99.90;;;;;;5030034;28;20029;-60
2022/08/19 05:59:17;;;;;;;41.10;25.13;;;18.60;99.90;;;;;;5025653;28;20030;-60
2022/08/19 06:01:45;;;;;;;42.85;25.48;;;18.60;99.90;;;;;;5029529;28;20044;-61
2022/08/19 06:04:13;;;;;;;41.70;25.58;;;18.60;99.90;;;;;;5028110;28;20028;-60
2022/08/19 06:06:39;;;;;;;43.33;25.63;;;18.50;99.90;;;;;;5028587;28;20025;-61
2022/08/19 06:09:07;;;;;;;43.78;26.05;;;18.50;99.90;;;;;;5028096;28;20040;-61
2022/08/19 06:11:40;;;;;;;43.50;26.15;;;18.50;99.90;;;;;;5029204;28;20068;-61
2022/08/19 06:14:18;;;;;;;40.90;24.25;;;18.60;99.90;;;;;;5025309;28;20040;-60
2022/08/19 06:16:44;;;;;;;41.08;24.48;;;18.60;99.90;;;;;;5032357;28;20471;-60
2022/08/19 06:19:13;;;;;;;44.90;25.10;;;18.60;99.90;;;;;;5035502;28;20060;-61
2022/08/19 06:21:42;;;;;;;44.47;26.35;;;18.60;99.90;;;;;;5029119;28;20523;-61
2022/08/19 06:24:11;;;;;;;45.75;25.67;;;18.60;99.90;;;;;;5032145;28;20052;-61
2022/08/19 06:26:39;;;;;;;43.55;25.67;;;18.70;99.90;;;;;;5028088;28;20038;-60
2022/08/19 06:29:06;;;;;;;45.28;26.80;;;18.70;99.90;;;;;;5029785;28;20037;-61
2022/08/19 06:31:34;;;;;;;41.58;25.60;;;18.70;99.90;;;;;;5029116;28;20037;-60
2022/08/19 06:34:04;;;;;;;44.17;26.13;;;18.70;99.90;;;;;;5027657;28;20539;-60
2022/08/19 06:36:34;;;;;;;46.88;26.73;;;18.70;99.90;;;;;;5025447;28;20025;-60
2022/08/19 06:39:06;;;;;;;53.65;27.60;;;18.70;99.90;;;;;;5039368;28;20033;-61
2022/08/19 06:41:35;;;;;;;47.50;26.52;;;18.70;99.90;;;;;;5033129;28;20576;-61
2022/08/19 06:44:01;;;;;;;48.30;27.35;;;18.70;99.90;;;;;;5025363;28;20486;-61
2022/08/19 06:46:26;;;;;;;46.85;26.13;;;18.70;99.90;;;;;;5038545;28;20124;-60
2022/08/19 06:48:54;;;;;;;46.45;27.33;;;18.70;99.90;;;;;;5027692;28;20029;-61
2022/08/19 06:51:20;;;;;;;47.28;26.50;;;18.70;99.90;;;;;;5036805;28;20471;-61
2022/08/19 06:53:50;;;;;;;44.92;26.65;;;18.70;99.90;;;;;;5028938;28;20060;-60
2022/08/19 06:56:20;;;;;;;44.03;25.08;;;18.70;99.90;;;;;;5028701;28;20246;-61
2022/08/19 06:58:48;;;;;;;44.15;26.52;;;18.70;99.90;;;;;;5018034;28;20038;-60
2022/08/19 07:01:13;;;;;;;43.00;25.73;;;18.70;99.90;;;;;;5022722;28;20381;-61
2022/08/19 07:03:39;;;;;;;42.65;25.15;;;18.70;99.90;;;;;;5027833;28;20036;-61
2022/08/19 07:06:07;;;;;;;52.03;26.00;;;18.70;99.90;;;;;;5029032;28;20179;-60
2022/08/19 07:08:35;;;;;;;48.70;27.02;;;18.70;99.90;;;;;;5027718;28;20029;-60
2022/08/19 07:11:01;;;;;;;45.13;25.83;;;18.70;99.90;;;;;;5028686;28;20075;-61
2022/08/19 07:13:27;;;;;;;47.60;27.30;;;18.70;99.90;;;;;;5028491;28;20025;-61
2022/08/19 07:15:52;;;;;;;42.75;25.08;;;18.70;99.90;;;;;;5028156;28;20118;-60
2022/08/19 07:18:20;;;;;;;46.22;25.95;;;18.70;99.90;;;;;;5030377;28;20115;-60
2022/08/19 07:20:46;;;;;;;44.08;25.85;;;18.60;99.90;;;;;;5027033;28;20034;-60
2022/08/19 07:23:12;;;;;;;53.50;27.85;;;18.60;99.90;;;;;;5030042;28;20108;-60
2022/08/19 07:25:38;;;;;;;43.15;25.50;;;18.70;99.90;;;;;;5027341;28;20164;-61
2022/08/19 07:28:04;;;;;;;43.88;26.15;;;18.60;99.90;;;;;;5026161;28;20044;-60
2022/08/19 07:30:30;;;;;;;44.95;25.08;;;18.60;99.90;;;;;;5027847;28;20018;-61
2022/08/19 07:32:56;;;;;;;48.33;26.02;;;18.70;99.90;;;;;;5025467;28;20033;-61
2022/08/19 07:35:23;;;;;;;48.40;26.55;;;18.70;99.90;;;;;;5027371;28;20025;-61
2022/08/19 07:37:49;;;;;;;43.08;25.25;;;18.70;99.90;;;;;;5039052;28;20031;-61
2022/08/19 07:40:15;;;;;;;45.10;25.52;;;18.70;99.90;;;;;;5028676;28;20032;-61
2022/08/19 07:42:42;;;;;;;44.30;26.13;;;18.70;99.90;;;;;;5028531;28;20400;-61
2022/08/19 07:45:08;;;;;;;47.08;26.48;;;18.70;99.90;;;;;;5027603;28;20529;-61
2022/08/19 07:47:34;;;;;;;41.38;25.35;;;18.70;99.90;;;;;;5036468;28;20049;-61
2022/08/19 07:49:59;;;;;;;45.35;25.55;;;18.70;99.90;;;;;;5010369;28;20025;-61
2022/08/19 07:52:25;;;;;;;45.10;25.85;;;18.80;99.90;;;;;;5026876;28;20384;-61
2022/08/19 07:54:51;;;;;;;41.42;25.60;;;18.80;99.90;;;;;;5028635;28;20443;-61
2022/08/19 07:57:18;;;;;;;44.10;25.58;;;18.80;99.90;;;;;;5032663;28;20083;-61
2022/08/19 07:59:44;;;;;;;42.03;26.00;;;18.80;99.90;;;;;;5029212;28;20029;-61
2022/08/19 08:02:10;;;;;;;46.63;26.42;;;18.80;99.90;;;;;;5026524;28;20052;-61
2022/08/19 08:10:06;;;;;;;42.97;25.08;;;18.90;99.90;;;;;;5010549;28;20439;-63
2022/08/19 08:12:42;;;;;;;44.28;25.20;;;18.90;99.90;;;;;;5031576;28;20479;-63
2022/08/19 08:15:16;;;;;;;48.92;27.17;;;19.00;99.90;;;;;;5031781;28;20029;-62
2022/08/19 08:17:42;;;;;;;47.22;26.80;;;19.00;99.90;;;;;;5029262;28;20025;-62
2022/08/19 08:20:08;;;;;;;48.55;26.17;;;19.00;99.90;;;;;;5049536;28;20085;-63
2022/08/19 08:25:22;;;;;;;50.92;26.75;;;19.10;99.90;;;;;;5036710;28;20032;-62
2022/08/19 08:27:49;;;;;;;47.38;27.33;;;19.10;99.90;;;;;;5030592;28;20041;-66
2022/08/19 08:30:23;;;;;;;47.30;26.30;;;19.20;99.90;;;;;;5038532;28;20025;-63
2022/08/19 08:32:50;;;;;;;51.25;26.88;;;19.10;99.90;;;;;;5043098;28;20030;-62
2022/08/19 08:35:19;;;;;;;47.92;26.35;;;19.20;99.90;;;;;;5024251;28;20060;-62
2022/08/19 08:37:46;;;;;;;44.40;26.02;;;19.30;99.90;;;;;;5032212;28;20049;-61
2022/08/19 08:40:51;;;;;;;45.03;26.63;;;19.30;99.90;;;;;;5036453;28;20025;-66
2022/08/19 08:43:32;;;;;;;48.70;26.45;;;19.40;99.90;;;;;;5031218;28;20048;-62
2022/08/19 08:46:09;;;;;;;40.42;24.15;;;19.40;99.90;;;;;;5031802;28;20045;-61
2022/08/19 08:48:42;;;;;;;46.95;26.67;;;19.50;99.90;;;;;;5019606;28;20030;-62
2022/08/19 08:51:12;;;;;;;51.88;26.20;;;19.50;99.90;;;;;;5046261;28;20083;-62
2022/08/19 08:53:40;;;;;;;43.47;25.08;;;19.60;99.90;;;;;;5032231;28;20029;-62
2022/08/19 08:56:12;;;;;;;48.45;27.58;;;19.60;99.90;;;;;;5043035;28;20482;-62
2022/08/19 08:59:06;;;;;;;50.25;25.17;;;19.70;99.90;;;;;;5037049;28;20041;-62
2022/08/19 09:01:32;;;;;;;41.85;23.77;;;19.70;99.90;;;;;;5033569;28;20037;-62
2022/08/19 09:03:58;;;;;;;50.55;26.40;;;19.70;99.90;;;;;;5035625;28;20447;-61
2022/08/19 09:06:29;;;;;;;47.78;26.10;;;19.70;99.90;;;;;;5031418;28;20057;-62
2022/08/19 09:09:09;;;;;;;48.10;25.25;;;19.80;99.90;;;;;;5030655;28;20025;-62
2022/08/19 09:12:03;;;;;;;47.05;26.23;;;19.80;99.90;;;;;;5029914;28;20029;-61
2022/08/19 09:14:40;;;;;;;48.95;25.65;;;19.80;99.90;;;;;;5028585;28;20060;-62
2022/08/19 09:17:09;;;;;;;47.50;25.33;;;19.70;99.90;;;;;;5038352;28;20499;-63
2022/08/19 09:19:47;;;;;;;47.70;25.70;;;19.70;99.90;;;;;;5028915;28;20109;-61
2022/08/19 09:22:13;;;;;;;49.75;26.58;;;19.60;99.90;;;;;;5035225;28;20091;-64
2022/08/19 09:24:39;;;;;;;50.42;26.05;;;19.70;99.90;;;;;;5028639;28;20454;-62
2022/08/19 09:27:05;;;;;;;45.08;25.60;;;19.60;99.90;;;;;;5047908;28;20036;-61
2022/08/19 09:29:30;;;;;;;47.67;26.30;;;19.60;99.90;;;;;;5036336;28;20034;-62
2022/08/19 09:31:56;;;;;;;46.65;25.58;;;19.60;99.90;;;;;;5031090;28;20057;-62
2022/08/19 09:34:22;;;;;;;46.72;25.00;;;19.60;99.90;;;;;;5044849;28;20034;-62
2022/08/19 09:36:52;;;;;;;46.10;25.25;;;19.70;99.90;;;;;;5031584;28;20117;-62
2022/08/19 09:39:18;;;;;;;;;;;19.70;99.90;;;;;;5028509;28;20022;-65
2022/08/19 09:41:44;;;;;;;46.55;24.83;;;19.50;99.90;;;;;;5042786;28;19916;-62
2022/08/19 09:44:11;;;;;;;48.20;25.15;;;19.50;99.90;;;;;;5039959;28;20044;-62
2022/08/19 09:46:37;;;;;;;48.40;25.63;;;19.60;99.90;;;;;;5032945;28;20056;-61
2022/08/19 09:49:05;;;;;;;43.60;23.70;;;19.70;99.90;;;;;;5029300;28;20029;-61
2022/08/19 09:51:32;;;;;;;44.05;24.58;;;19.70;99.90;;;;;;5028344;28;20033;-62
2022/08/19 09:54:02;;;;;;;46.25;24.60;;;19.70;99.90;;;;;;5030861;28;20389;-61
2022/08/19 09:56:30;;;;;;;;;;;19.70;99.90;;;;;;5026767;28;20033;-63
2022/08/19 09:58:57;;;;;;;41.10;22.40;;;19.70;99.90;;;;;;5029429;28;19970;-62
2022/08/19 10:01:26;;;;;;;48.75;25.40;;;19.60;99.90;;;;;;5029170;28;20032;-63
2022/08/19 10:03:54;;;;;;;48.97;25.75;;;19.60;99.90;;;;;;5029866;28;20033;-63
2022/08/19 10:06:22;;;;;;;45.85;26.25;;;19.60;99.90;;;;;;5031633;28;20054;-63
2022/08/19 10:08:49;;;;;;;43.42;23.90;;;19.60;99.90;;;;;;5037567;28;20096;-62
2022/08/19 10:11:16;;;;;;;48.42;25.55;;;19.60;99.90;;;;;;5029413;28;20025;-61
2022/08/19 10:13:43;;;;;;;41.80;24.85;;;19.70;99.90;;;;;;5027958;28;20438;-62
2022/08/19 10:16:13;;;;;;;42.80;23.83;;;19.70;99.90;;;;;;5031436;28;20048;-60
2022/08/19 10:18:42;;;;;;;40.13;23.17;;;19.70;99.90;;;;;;5041042;28;20025;-60
2022/08/19 10:21:20;;;;;;;51.58;25.55;;;19.70;99.90;;;;;;5028431;28;20043;-59
2022/08/19 10:23:51;;;;;;;41.03;23.48;;;19.80;99.90;;;;;;5030188;28;20108;-59
2022/08/19 10:26:26;;;;;;;50.17;23.67;;;19.90;99.90;;;;;;5044463;28;20117;-60
2022/08/19 10:28:52;;;;;;;43.85;24.48;;;19.90;99.90;;;;;;5035422;28;20038;-60
2022/08/19 10:31:23;;;;;;;46.03;24.13;;;19.80;99.90;;;;;;5025602;28;20103;-61
2022/08/19 10:33:50;;;;;;;44.17;24.60;;;19.80;99.90;;;;;;5025871;28;20179;-58
2022/08/19 10:36:22;;;;;;;46.00;25.77;;;19.70;99.90;;;;;;5046210;28;20033;-58
2022/08/19 10:38:51;;;;;;;44.83;24.10;;;19.60;99.90;;;;;;5034926;28;20040;-59
2022/08/19 10:41:23;;;;;;;48.75;24.13;;;19.50;99.90;;;;;;5029598;28;20517;-59
2022/08/19 10:43:54;;;;;;;39.88;24.38;;;19.50;99.90;;;;;;5033815;28;20155;-58
2022/08/19 10:46:21;;;;;;;47.00;24.70;;;19.50;99.90;;;;;;5048356;28;20051;-61
2022/08/19 10:48:47;;;;;;;44.20;23.60;;;19.50;99.90;;;;;;5050212;28;20032;-58
2022/08/19 10:53:58;;;;;;;45.70;24.42;;;19.60;99.90;;;;;;5043500;28;20036;-59
2022/08/19 10:59:10;;;;;;;40.20;24.02;;;19.60;99.90;;;;;;5030151;28;20156;-58
2022/08/19 11:01:36;;;;;;;41.45;23.05;;;19.60;99.90;;;;;;5042037;28;20068;-59
2022/08/19 11:04:03;;;;;;;45.40;24.63;;;19.60;99.90;;;;;;5048023;28;20064;-59
2022/08/19 11:06:31;;;;;;;42.72;23.05;;;19.60;99.90;;;;;;5043087;28;20032;-58
2022/08/19 11:08:57;;;;;;;47.17;24.08;;;19.60;99.90;;;;;;5037139;28;20438;-59
2022/08/19 11:11:23;;;;;;;40.85;23.23;;;19.60;99.90;;;;;;5029329;28;20028;-60
2022/08/19 11:13:49;;;;;;;47.08;24.70;;;19.60;99.90;;;;;;5037482;28;20036;-58
2022/08/19 11:16:25;;;;;;;52.33;25.50;;;19.60;99.90;;;;;;5049651;28;20128;-59
2022/08/19 11:18:58;;;;;;;46.95;25.77;;;19.60;99.90;;;;;;5035281;28;20045;-59
2022/08/19 11:21:34;;;;;;;50.92;26.00;;;19.40;99.90;;;;;;5029144;28;20029;-61
2022/08/19 11:24:03;;;;;;;52.42;26.70;;;19.40;99.90;;;;;;5030949;28;20558;-59
2022/08/19 11:26:30;;;;;;;51.13;27.25;;;19.30;99.90;;;;;;5027403;28;20041;-59
2022/08/19 11:28:57;;;;;;;51.50;27.55;;;19.20;99.90;;;;;;5034730;28;20037;-58
2022/08/19 11:31:26;;;;;;;51.17;26.23;;;19.10;99.90;;;;;;5026916;28;20054;-60
2022/08/19 11:33:53;;;;;;;50.67;27.20;;;19.00;99.90;;;;;;5027249;28;20037;-59
2022/08/19 11:36:20;;;;;;;50.85;27.15;;;18.90;99.90;;;;;;5024520;28;20545;-60
2022/08/19 11:38:48;;;;;;;51.72;27.48;;;18.80;99.90;;;;;;5027071;28;20033;-59
2022/08/19 11:41:15;;;;;;;51.10;27.52;;;18.80;99.90;;;;;;5026681;28;20525;-59
2022/08/19 11:43:40;;;;;;;52.67;29.17;;;18.80;99.90;;;;;;5028916;28;20037;-59
2022/08/19 11:46:12;;;;;;;55.00;28.23;;;18.70;99.90;;;;;;5035634;28;20415;-59
2022/08/19 11:48:39;;;;;;;59.05;29.00;;;18.70;99.90;;;;;;5037667;28;20033;-59
2022/08/19 11:51:08;;;;;;;58.10;30.05;;;18.60;99.90;;;;;;5049262;28;20039;-58
2022/08/19 11:53:35;;;;;;;56.33;29.95;;;18.60;99.90;;;;;;5036161;28;20026;-59
2022/08/19 11:56:01;;;;;;;55.67;29.27;;;18.60;99.90;;;;;;5049217;28;20086;-59
2022/08/19 11:58:28;;;;;;;57.28;30.70;;;18.40;99.90;;;;;;5040938;28;20037;-59
2022/08/19 12:00:54;;;;;;;61.10;31.55;;;18.30;99.90;;;;;;5028556;28;20036;-58
2022/08/19 12:03:20;;;;;;;60.47;31.63;;;18.30;99.90;;;;;;5028878;28;20037;-59
2022/08/19 12:05:46;;;;;;;59.42;31.35;;;18.20;99.90;;;;;;5027162;28;20025;-59
2022/08/19 12:08:15;;;;;;;59.63;31.50;;;18.20;99.90;;;;;;5035665;28;20450;-58
2022/08/19 12:10:42;;;;;;;60.80;31.95;;;18.20;99.90;;;;;;5026103;28;20091;-59
2022/08/19 12:13:09;;;;;;;61.67;31.25;;;18.20;99.90;;;;;;5027491;28;20044;-58
2022/08/19 12:15:40;;;;;;;62.72;32.60;;;18.20;99.90;;;;;;5028008;28;20060;-59
2022/08/19 12:18:08;;;;;;;66.38;34.05;;;18.20;99.90;;;;;;5029019;28;20033;-58
2022/08/19 12:20:36;;;;;;;60.95;31.75;;;18.20;99.90;;;;;;5028210;28;20044;-59
2022/08/19 12:23:03;;;;;;;63.33;33.30;;;18.20;99.90;;;;;;5028618;28;20388;-58
2022/08/19 12:25:30;;;;;;;63.50;33.63;;;18.20;99.90;;;;;;5026984;28;20495;-59
2022/08/19 12:27:56;;;;;;;65.55;33.10;;;18.20;99.90;;;;;;5028119;28;20052;-60
2022/08/19 12:30:22;;;;;;;55.70;29.95;;;18.20;99.90;;;;;;5026820;28;20025;-59
2022/08/19 12:32:48;;;;;;;83.53;30.67;;;18.20;99.90;;;;;;5028392;28;20096;-58
2022/08/19 12:35:14;;;;;;;56.28;29.33;;;18.20;99.90;;;;;;5028920;28;20095;-59
2022/08/19 12:37:42;;;;;;;53.30;29.00;;;18.20;99.90;;;;;;5028198;28;20048;-59
2022/08/19 12:40:08;;;;;;;53.83;28.58;;;18.30;99.90;;;;;;5028834;28;20030;-59
2022/08/19 12:42:34;;;;;;;52.88;28.45;;;18.30;99.90;;;;;;5027967;28;20117;-59
2022/08/19 12:45:00;;;;;;;53.60;28.05;;;18.30;99.90;;;;;;5028533;28;20068;-59
2022/08/19 12:47:26;;;;;;;51.72;28.25;;;18.40;99.90;;;;;;5028735;28;20088;-60
2022/08/19 12:49:52;;;;;;;86.03;28.17;;;18.30;99.90;;;;;;5028366;28;20029;-59
2022/08/19 12:52:20;;;;;;;56.70;27.05;;;18.40;99.90;;;;;;5028827;28;20041;-59